sim
Sign-in with your pilot id or email,
or register
Callsign
Passwort

Schedule Details

Flight Number: RYR2318 (2)
Departure: London Stansted Airport (EGSS) at 17:45
Arrival: Bratislava M. R. Stefanik Airport (LZIB) at 19:55
Route: Ryanair Passenger Schedule. Enter filed route here before submitting Pirep.

Weather Information
Getting current METAR information for EGSS 310620Z AUTO 07008KT 9999 NCD 14/10 Q1023
Getting current METAR information for LZIB 310630Z 33005KT 300V010 9999 -RA FEW025 BKN056 BKN075 12/06 Q1015 NOSIG

Schedule Frequency

Route Map